Time;durP1;ratioP1;P1;durP2;ratioP2;P2;SDS_P1;SDS_P2;PMS_P1;PMS_P2;Temp;Humidity;BMP_temperature;BMP_pressure;BME280_temperature;BME280_humidity;BME280_pressure;Samples;Min_cycle;Max_cycle;Signal;HPM_P1;HPM_P2
2022/03/16 00:00:17;;;;;;;98.63;33.28;;;;;;;5.04;47.39;96175.63;4990924;28;20419;-82
2022/03/16 00:02:47;;;;;;;90.53;36.00;;;;;;;5.47;47.85;96255.63;4991157;28;20117;-82
2022/03/16 00:05:13;;;;;;;91.35;33.50;;;;;;;5.50;47.99;96255.97;4991064;28;20037;-82
2022/03/16 00:07:39;;;;;;;90.75;32.38;;;;;;;5.22;47.91;96206.44;5009194;28;20033;-82
2022/03/16 00:10:07;;;;;;;90.63;31.02;;;;;;;4.80;48.04;96154.59;5008460;28;20030;-82
2022/03/16 00:12:34;;;;;;;81.20;32.13;;;;;;;5.29;47.78;96209.81;4990661;28;20109;-82
2022/03/16 00:14:59;;;;;;;85.15;33.42;;;;;;;5.16;48.08;96209.13;4990709;28;20351;-82
2022/03/16 00:17:25;;;;;;;81.13;28.60;;;;;;;4.77;47.21;96144.50;4990929;28;20033;-82
2022/03/16 00:19:50;;;;;;;67.72;27.70;;;;;;;4.40;46.96;96083.13;4990776;28;20403;-82
2022/03/16 00:22:16;;;;;;;80.10;29.52;;;;;;;5.41;47.84;96242.31;5008318;28;20647;-82
2022/03/16 00:24:42;;;;;;;72.88;28.95;;;;;;;5.20;47.41;96244.50;5007043;28;20057;-82
2022/03/16 00:27:07;;;;;;;73.65;28.95;;;;;;;4.62;47.53;96113.28;4990460;28;20030;-82
2022/03/16 00:29:33;;;;;;;58.63;26.27;;;;;;;4.84;48.21;96158.41;4990371;28;20034;-82
2022/03/16 00:31:59;;;;;;;61.47;26.52;;;;;;;4.24;48.10;96066.88;5008529;28;20701;-83
2022/03/16 00:34:25;;;;;;;59.03;24.50;;;;;;;4.98;48.04;96209.84;4990529;28;20029;-82
2022/03/16 00:36:50;;;;;;;66.85;23.73;;;;;;;4.76;49.01;96183.13;5006656;28;20128;-82
2022/03/16 00:39:16;;;;;;;61.97;23.85;;;;;;;4.46;48.67;96105.91;4990844;28;20616;-82
2022/03/16 00:41:41;;;;;;;64.47;24.30;;;;;;;5.19;48.74;96208.72;4989981;28;20426;-82
2022/03/16 00:44:07;;;;;;;58.08;24.08;;;;;;;5.26;48.70;96197.13;4990520;28;20034;-82
2022/03/16 00:46:33;;;;;;;65.88;24.52;;;;;;;4.31;48.94;96055.53;5008157;28;20140;-82
2022/03/16 00:48:59;;;;;;;65.07;25.00;;;;;;;4.38;49.45;96103.53;5008127;28;20523;-82
2022/03/16 00:51:24;;;;;;;68.82;25.65;;;;;;;5.10;49.00;96202.09;4990446;28;20068;-82
2022/03/16 00:53:50;;;;;;;64.35;24.40;;;;;;;4.04;49.49;96045.22;5006463;28;20067;-82
2022/03/16 00:56:16;;;;;;;77.50;25.48;;;;;;;3.59;49.12;95957.84;4990289;28;20481;-82
2022/03/16 00:58:41;;;;;;;81.60;27.73;;;;;;;4.03;49.33;96006.84;5008427;28;20052;-82
2022/03/16 01:01:07;;;;;;;74.15;27.65;;;;;;;4.49;49.40;96089.75;4990431;28;20546;-82
2022/03/16 01:03:34;;;;;;;65.10;25.80;;;;;;;4.96;50.26;96186.41;5008275;28;20033;-82
2022/03/16 01:06:00;;;;;;;57.30;24.67;;;;;;;4.90;50.23;96171.50;4990118;28;20371;-82
2022/03/16 01:08:26;;;;;;;67.72;24.20;;;;;;;1.78;50.44;95694.53;5008043;28;20045;-82
2022/03/16 01:10:52;;;;;;;65.28;24.10;;;;;;;3.56;50.79;95963.53;5011620;28;20270;-82
2022/03/16 01:13:17;;;;;;;69.38;25.77;;;;;;;4.56;50.28;96091.31;4993920;28;20440;-81
2022/03/16 01:15:43;;;;;;;68.68;24.25;;;;;;;3.96;50.09;96002.66;5012166;28;20504;-82
2022/03/16 01:18:09;;;;;;;59.30;23.60;;;;;;;4.63;50.22;96107.03;5009778;28;20037;-82
2022/03/16 01:20:34;;;;;;;71.95;26.63;;;;;;;4.86;50.07;96143.22;5009916;28;20026;-82
2022/03/16 01:23:00;;;;;;;75.25;28.08;;;;;;;4.50;50.21;96092.13;5011569;28;20447;-82
2022/03/16 01:25:25;;;;;;;65.75;25.55;;;;;;;4.63;50.19;96104.38;4993658;28;20037;-81
2022/03/16 01:27:51;;;;;;;79.70;29.02;;;;;;;4.82;49.77;96119.19;4993537;28;20124;-83
2022/03/16 01:30:16;;;;;;;81.65;28.08;;;;;;;3.36;49.44;95868.41;5011340;28;20026;-82
2022/03/16 01:32:42;;;;;;;71.43;27.38;;;;;;;4.35;50.13;96031.22;4993572;28;20049;-82
2022/03/16 01:35:09;;;;;;;68.20;27.95;;;;;;;4.84;49.67;96090.06;4993611;28;20034;-82
2022/03/16 01:37:35;;;;;;;79.63;28.13;;;;;;;4.26;49.22;96022.03;4993605;28;20099;-82
2022/03/16 01:40:01;;;;;;;83.28;30.67;;;;;;;4.97;49.41;96132.00;5011073;28;20030;-82
2022/03/16 01:42:27;;;;;;;95.55;30.17;;;;;;;4.55;50.10;96052.91;4993159;28;20038;-82
2022/03/16 01:44:55;;;;;;;78.45;30.17;;;;;;;5.09;49.98;96129.50;5009825;28;20036;-81
2022/03/16 01:47:22;;;;;;;86.20;32.42;;;;;;;4.88;49.63;96114.91;4993398;28;20048;-82
2022/03/16 01:49:49;;;;;;;80.00;32.88;;;;;;;4.64;49.62;96038.50;5009613;28;20076;-82
2022/03/16 01:52:20;;;;;;;100.10;41.55;;;;;;;5.04;50.23;96104.66;4993571;28;20036;-81
2022/03/16 01:54:47;;;;;;;85.18;33.20;;;;;;;4.11;50.62;95988.22;5009609;28;20040;-82
2022/03/16 01:57:13;;;;;;;79.32;31.35;;;;;;;4.60;50.25;96055.69;4993552;28;20095;-81
2022/03/16 01:59:39;;;;;;;85.70;32.00;;;;;;;4.92;50.46;96109.00;5010678;28;20504;-82
2022/03/16 02:02:06;;;;;;;92.38;33.90;;;;;;;5.02;50.11;96105.91;4992929;28;20029;-82
2022/03/16 02:04:32;;;;;;;82.07;33.47;;;;;;;4.80;50.76;96083.66;4992923;28;20424;-82
2022/03/16 02:06:59;;;;;;;88.70;34.22;;;;;;;4.69;50.48;96055.44;4992791;28;20033;-82
2022/03/16 02:09:25;;;;;;;88.80;34.85;;;;;;;4.44;50.78;96013.38;4993150;28;20041;-82
2022/03/16 02:11:51;;;;;;;95.88;34.92;;;;;;;4.92;51.14;96108.19;4992300;28;20416;-83
2022/03/16 02:14:19;;;;;;;89.78;37.80;;;;;;;4.89;51.02;96108.63;5009084;28;20065;-82
2022/03/16 02:16:46;;;;;;;90.70;33.25;;;;;;;4.89;51.32;96091.03;4992795;28;20030;-82
2022/03/16 02:19:11;;;;;;;81.55;34.28;;;;;;;4.58;51.27;96051.66;5010774;28;20465;-83
2022/03/16 02:21:40;;;;;;;101.05;36.20;;;;;;;3.95;50.68;95980.84;5009729;28;20046;-82
2022/03/16 02:24:06;;;;;;;92.15;35.58;;;;;;;4.30;51.17;95999.56;4992273;28;20038;-82
2022/03/16 02:26:32;;;;;;;97.20;35.47;;;;;;;4.93;51.09;96091.41;5017593;28;20025;-83
2022/03/16 02:28:58;;;;;;;105.10;40.30;;;;;;;5.05;50.44;96077.34;4994882;28;20527;-83
2022/03/16 02:31:24;;;;;;;86.35;37.08;;;;;;;4.97;50.87;96063.66;5000506;28;20026;-83
2022/03/16 02:33:50;;;;;;;90.60;33.92;;;;;;;4.08;51.75;95969.44;5020137;28;20240;-82
2022/03/16 02:36:16;;;;;;;97.95;36.13;;;;;;;4.72;51.94;96066.31;4999340;28;20073;-82
2022/03/16 02:38:42;;;;;;;86.40;34.35;;;;;;;4.85;51.61;96073.28;5009579;28;20033;-81
2022/03/16 02:41:07;;;;;;;90.85;35.30;;;;;;;4.85;51.65;96075.91;5000168;28;20418;-82
2022/03/16 02:43:33;;;;;;;90.50;35.03;;;;;;;4.15;51.14;95946.56;5004795;28;20058;-82
2022/03/16 02:45:58;;;;;;;87.45;34.70;;;;;;;4.09;51.40;95939.56;4988791;28;20432;-82
2022/03/16 02:48:24;;;;;;;92.53;37.15;;;;;;;4.47;51.38;95992.78;4990426;28;20034;-82
2022/03/16 02:50:49;;;;;;;86.60;33.75;;;;;;;5.01;51.72;96070.91;4990717;28;20474;-83
2022/03/16 02:53:15;;;;;;;96.68;33.58;;;;;;;4.86;52.22;96094.09;4989166;28;20089;-82
2022/03/16 02:55:45;;;;;;;102.90;33.47;;;;;;;4.43;51.87;95996.03;5005924;28;20305;-83
2022/03/16 02:58:12;;;;;;;102.68;37.13;;;;;;;3.72;51.27;95886.16;4990612;28;20121;-83
2022/03/16 03:00:38;;;;;;;90.60;35.75;;;;;;;4.22;50.88;95928.94;4988863;28;20097;-82
2022/03/16 03:03:03;;;;;;;86.22;34.83;;;;;;;4.74;51.02;96011.72;5005764;28;20440;-82
2022/03/16 03:05:29;;;;;;;87.20;34.13;;;;;;;5.06;50.87;96049.22;4989465;28;20125;-82
2022/03/16 03:07:54;;;;;;;103.75;34.53;;;;;;;4.04;50.64;95892.97;4989058;28;20062;-82
2022/03/16 03:10:20;;;;;;;92.15;34.95;;;;;;;4.20;50.54;95902.09;5005288;28;20026;-83
2022/03/16 03:12:46;;;;;;;80.55;33.17;;;;;;;3.92;50.88;95855.31;4990606;28;20417;-84
2022/03/16 03:15:13;;;;;;;86.53;35.90;;;;;;;4.09;50.76;95890.50;4990411;28;20109;-83
2022/03/16 03:17:40;;;;;;;85.38;34.67;;;;;;;5.06;51.45;96046.59;5005623;28;20038;-83
2022/03/16 03:20:06;;;;;;;91.93;33.88;;;;;;;4.79;51.07;96000.56;4988663;28;20092;-83
2022/03/16 03:22:31;;;;;;;92.72;38.17;;;;;;;5.10;50.75;96042.53;4988910;28;20508;-82
2022/03/16 03:24:57;;;;;;;101.78;38.83;;;;;;;5.13;50.66;96025.50;4990523;28;20548;-83
2022/03/16 03:27:23;;;;;;;95.45;35.80;;;;;;;4.37;50.73;95924.16;4988406;28;20401;-83
2022/03/16 03:29:48;;;;;;;92.38;34.38;;;;;;;4.08;50.64;95890.69;4990276;28;20041;-83
2022/03/16 03:32:14;;;;;;;105.57;36.20;;;;;;;4.44;50.74;95960.88;5004887;28;20030;-83
2022/03/16 03:34:40;;;;;;;104.72;35.22;;;;;;;4.62;50.99;95972.22;5005211;28;20041;-83
2022/03/16 03:37:06;;;;;;;88.47;37.13;;;;;;;4.23;51.07;95947.09;4990267;28;20030;-83
2022/03/16 03:39:32;;;;;;;100.45;36.92;;;;;;;4.99;51.06;96030.09;4990018;28;20594;-83
2022/03/16 03:41:58;;;;;;;90.80;39.83;;;;;;;3.88;50.74;95862.81;4988213;28;20050;-83
2022/03/16 03:44:23;;;;;;;97.68;39.35;;;;;;;4.04;50.85;95885.09;5004678;28;20040;-83
2022/03/16 03:46:48;;;;;;;101.28;37.67;;;;;;;3.97;51.57;95894.03;4988320;28;20467;-83
2022/03/16 03:49:14;;;;;;;99.13;36.85;;;;;;;4.08;51.62;95903.81;5004789;28;20121;-83
2022/03/16 03:51:39;;;;;;;100.88;37.83;;;;;;;4.37;51.10;95928.59;5004313;28;20089;-83
2022/03/16 03:54:05;;;;;;;108.15;41.33;;;;;;;4.72;52.08;95995.38;4989599;28;20034;-83
2022/03/16 03:56:30;;;;;;;115.25;42.38;;;;;;;4.66;51.83;95983.09;4989647;28;20038;-83
2022/03/16 03:58:56;;;;;;;130.20;44.40;;;;;;;3.86;51.68;95850.91;5004536;28;20113;-83
2022/03/16 04:01:21;;;;;;;114.95;42.85;;;;;;;4.22;51.64;95897.44;4989594;28;20250;-83
2022/03/16 04:03:47;;;;;;;100.25;40.38;;;;;;;3.93;52.14;95943.50;5004681;28;20493;-83
2022/03/16 04:06:12;;;;;;;95.53;40.42;;;;;;;3.74;52.13;95895.41;4987825;28;20235;-83
2022/03/16 04:08:38;;;;;;;106.22;42.35;;;;;;;4.36;52.05;95982.94;5004434;28;20038;-83
2022/03/16 04:11:04;;;;;;;97.72;38.85;;;;;;;4.68;51.92;96019.66;5004418;28;20125;-83
2022/03/16 04:13:29;;;;;;;99.57;39.15;;;;;;;4.11;51.72;95901.59;4988570;28;20077;-83
2022/03/16 04:15:55;;;;;;;94.85;40.35;;;;;;;4.88;51.38;96017.66;4987911;28;20752;-83
2022/03/16 04:18:20;;;;;;;100.07;39.20;;;;;;;4.70;51.65;95994.78;5004583;28;20041;-83
2022/03/16 04:20:46;;;;;;;101.40;38.40;;;;;;;4.63;51.12;95968.56;5004075;28;20039;-83
2022/03/16 04:23:11;;;;;;;98.85;41.22;;;;;;;4.50;51.40;95947.66;5004127;28;20066;-83
2022/03/16 04:25:37;;;;;;;89.45;39.67;;;;;;;4.82;51.27;95989.59;5004223;28;20180;-83
2022/03/16 04:28:02;;;;;;;99.93;40.00;;;;;;;4.21;51.57;95885.31;4989383;28;20057;-83
2022/03/16 04:30:28;;;;;;;96.32;39.42;;;;;;;4.01;51.81;95882.88;4989445;28;20038;-83
2022/03/16 04:32:53;;;;;;;96.05;41.15;;;;;;;4.41;52.00;95929.78;5004051;28;20257;-83
2022/03/16 04:35:20;;;;;;;97.30;38.75;;;;;;;4.91;51.84;95996.19;4988115;28;20471;-83
2022/03/16 04:37:47;;;;;;;94.05;39.50;;;;;;;4.19;51.79;95892.63;4989142;28;20038;-83
2022/03/16 04:40:13;;;;;;;100.95;39.75;;;;;;;4.04;52.10;95881.66;4988887;28;20034;-84
2022/03/16 04:42:38;;;;;;;108.70;41.40;;;;;;;3.88;52.11;95841.81;4987078;28;20054;-83
2022/03/16 04:45:05;;;;;;;96.03;41.20;;;;;;;4.85;52.40;95990.00;4990737;28;20501;-83
2022/03/16 04:47:30;;;;;;;104.55;40.08;;;;;;;4.51;52.31;95930.09;5008170;28;20116;-83
2022/03/16 04:49:56;;;;;;;102.47;43.17;;;;;;;4.18;52.15;95852.44;5008083;28;20643;-82
2022/03/16 04:52:21;;;;;;;112.22;44.53;;;;;;;2.44;52.08;95596.59;5009535;28;20556;-83
2022/03/16 04:54:47;;;;;;;123.38;60.22;;;;;;;4.23;52.35;95897.22;5007414;28;20030;-83
2022/03/16 04:57:12;;;;;;;123.30;51.90;;;;;;;3.88;52.41;95818.22;5007980;28;20038;-82
2022/03/16 04:59:38;;;;;;;110.15;47.05;;;;;;;4.50;52.72;95924.03;5007178;28;20046;-82
2022/03/16 05:02:04;;;;;;;89.80;41.10;;;;;;;4.53;52.31;95901.78;5007141;28;20031;-83
2022/03/16 05:04:29;;;;;;;104.15;40.97;;;;;;;4.30;53.10;95886.66;5004451;28;20036;-83
2022/03/16 05:06:55;;;;;;;96.05;39.92;;;;;;;4.01;52.91;95827.78;4991895;28;20068;-84
2022/03/16 05:09:20;;;;;;;101.20;39.30;;;;;;;4.64;52.79;95922.09;4992988;28;20047;-83
2022/03/16 05:11:46;;;;;;;99.40;41.53;;;;;;;4.07;52.82;95811.16;4992778;28;20026;-83
2022/03/16 05:14:11;;;;;;;117.63;43.70;;;;;;;4.24;53.26;95877.84;5027517;28;20034;-84
2022/03/16 05:16:37;;;;;;;134.20;46.22;;;;;;;4.74;53.15;95908.44;5012609;28;20033;-83
2022/03/16 05:19:03;;;;;;;133.70;45.20;;;;;;;4.09;52.82;95800.44;5004832;28;20057;-84
2022/03/16 05:21:28;;;;;;;115.03;44.70;;;;;;;4.32;53.19;95858.38;4997048;28;20030;-84
2022/03/16 05:23:54;;;;;;;125.10;45.22;;;;;;;4.95;53.09;95990.28;5001972;28;20029;-84
2022/03/16 05:26:19;;;;;;;142.15;50.60;;;;;;;5.08;52.50;95946.47;4989360;28;20122;-86
2022/03/16 05:28:45;;;;;;;130.70;44.45;;;;;;;4.69;53.11;95897.78;4990882;28;20036;-84
2022/03/16 05:31:10;;;;;;;129.32;42.50;;;;;;;4.60;53.18;95869.16;4988470;28;20547;-83
2022/03/16 05:33:36;;;;;;;128.23;46.92;;;;;;;5.13;53.57;95933.47;4996880;28;20204;-84
2022/03/16 05:36:02;;;;;;;162.45;51.85;;;;;;;4.30;53.74;95805.25;5007628;28;20033;-83
2022/03/16 05:38:28;;;;;;;149.85;52.85;;;;;;;4.52;53.46;95842.38;4978624;28;20229;-83
2022/03/16 05:40:53;;;;;;;154.07;51.05;;;;;;;4.45;53.56;95820.66;5007733;28;20040;-84
2022/03/16 05:43:27;;;;;;;133.52;50.17;;;;;;;5.26;53.29;95920.97;4999794;28;20050;-83
2022/03/16 05:45:56;;;;;;;144.40;52.58;;;;;;;4.83;53.91;95852.72;5004493;28;20030;-84
2022/03/16 05:48:22;;;;;;;116.95;46.58;;;;;;;5.14;53.54;95895.63;4998636;28;20515;-83
2022/03/16 05:50:47;;;;;;;118.88;47.45;;;;;;;2.82;53.54;95510.06;4986369;28;20030;-83
2022/03/16 05:53:16;;;;;;;98.38;43.80;;;;;;;4.49;53.67;95813.94;4993866;28;20440;-83
2022/03/16 05:55:43;;;;;;;102.32;43.83;;;;;;;4.64;53.19;95869.56;5010252;28;20132;-83
2022/03/16 05:58:08;;;;;;;91.93;41.30;;;;;;;4.52;52.57;95816.91;4985063;28;20568;-84
2022/03/16 06:00:35;;;;;;;126.68;43.67;;;;;;;4.32;51.83;95776.97;5004242;28;20076;-84
2022/03/16 06:03:00;;;;;;;121.32;46.58;;;;;;;4.58;51.52;95825.75;4999513;28;20084;-83
2022/03/16 06:05:26;;;;;;;106.32;47.90;;;;;;;4.22;51.79;95790.59;4997914;28;20034;-84
2022/03/16 06:07:51;;;;;;;118.57;49.90;;;;;;;4.76;52.45;95885.38;4973347;28;20132;-84
2022/03/16 06:10:18;;;;;;;130.25;52.83;;;;;;;4.48;52.55;95825.47;4978366;28;20314;-84
2022/03/16 06:12:56;;;;;;;110.00;48.38;;;;;;;5.00;52.75;95921.28;4996324;28;20576;-83
2022/03/16 06:15:24;;;;;;;120.45;44.63;;;;;;;4.33;52.19;95790.91;5002333;28;20034;-84
2022/03/16 06:18:00;;;;;;;95.45;42.25;;;;;;;4.19;52.44;95767.41;5000943;28;20430;-84
2022/03/16 06:20:35;;;;;;;89.63;39.65;;;;;;;1.97;51.62;95402.53;4998568;28;20033;-84
2022/03/16 06:23:00;;;;;;;99.43;40.40;;;;;;;3.26;51.61;95592.88;4980619;28;20064;-85
2022/03/16 06:25:26;;;;;;;92.35;38.72;;;;;;;4.44;52.46;95832.16;4983702;28;20583;-83
2022/03/16 06:27:52;;;;;;;89.90;38.28;;;;;;;3.94;52.06;95714.19;4980577;28;20033;-84
2022/03/16 06:30:18;;;;;;;89.63;37.28;;;;;;;4.26;51.22;95789.16;4986611;28;20104;-84
2022/03/16 06:32:45;;;;;;;105.90;37.80;;;;;;;5.24;51.11;95925.66;4980888;28;20033;-84
2022/03/16 06:35:11;;;;;;;80.28;35.78;;;;;;;5.15;50.83;95911.19;4979424;28;20121;-84
2022/03/16 06:37:37;;;;;;;74.53;31.65;;;;;;;4.46;49.66;95790.75;5000728;28;20447;-84
2022/03/16 06:40:04;;;;;;;72.75;33.20;;;;;;;5.25;49.46;95906.22;4976097;28;20037;-84
2022/03/16 06:42:29;;;;;;;66.82;31.42;;;;;;;5.17;49.35;95893.38;4979924;28;20076;-84
2022/03/16 06:44:55;;;;;;;83.80;34.83;;;;;;;4.77;49.08;95829.97;4980346;28;20038;-84
2022/03/16 06:47:20;;;;;;;88.55;36.25;;;;;;;5.22;50.08;95926.88;4999971;28;20962;-84
2022/03/16 06:49:46;;;;;;;86.25;36.28;;;;;;;3.93;50.97;95749.31;4987087;28;20056;-84
2022/03/16 06:52:11;;;;;;;84.80;35.88;;;;;;;3.44;50.39;95619.06;4998695;28;20033;-83
2022/03/16 06:54:37;;;;;;;80.85;35.05;;;;;;;1.23;50.68;95269.19;4980729;28;20092;-84
2022/03/16 06:57:02;;;;;;;85.03;36.72;;;;;;;3.11;50.33;95559.16;4984424;28;20037;-85
2022/03/16 06:59:28;;;;;;;84.90;33.88;;;;;;;5.28;50.28;95889.16;5007627;28;20030;-85
2022/03/16 07:01:53;;;;;;;78.35;33.63;;;;;;;5.33;49.87;95903.28;4978498;28;20042;-84
2022/03/16 07:04:24;;;;;;;81.70;32.47;;;;;;;4.95;49.70;95816.81;4978578;28;20607;-85
2022/03/16 07:06:50;;;;;;;82.38;31.30;;;;;;;3.41;49.72;95569.72;4973786;28;20034;-84
2022/03/16 07:09:16;;;;;;;117.93;35.53;;;;;;;2.19;49.56;95387.22;4996957;28;20033;-84
2022/03/16 07:11:41;;;;;;;77.85;34.08;;;;;;;5.30;49.57;95851.13;4973902;28;20036;-85
2022/03/16 07:16:51;;;;;;;83.22;31.75;;;;;;;4.97;49.86;95808.69;4998428;28;20388;-85
2022/03/16 07:19:16;;;;;;;78.05;31.65;;;;;;;4.59;49.65;95770.38;4998183;28;20025;-85
2022/03/16 07:21:42;;;;;;;81.43;32.13;;;;;;;5.36;50.58;95902.00;4998186;28;20620;-84
2022/03/16 07:24:11;;;;;;;77.53;31.35;;;;;;;5.09;49.68;95837.66;4986048;28;20038;-84
2022/03/16 07:26:36;;;;;;;76.50;31.05;;;;;;;4.50;49.44;95773.53;4977637;28;20037;-84
2022/03/16 07:29:02;;;;;;;73.47;31.02;;;;;;;4.52;49.46;95760.97;4984879;28;20045;-87
2022/03/16 07:31:28;;;;;;;83.75;31.77;;;;;;;5.42;49.01;95859.81;4989774;28;20662;-84
2022/03/16 07:33:53;;;;;;;76.68;29.80;;;;;;;5.48;49.51;95857.34;4990179;28;20041;-85
2022/03/16 07:36:19;;;;;;;63.78;27.77;;;;;;;4.89;49.27;95744.09;4986395;28;20068;-85
2022/03/16 07:38:46;;;;;;;81.82;28.80;;;;;;;4.99;48.71;95746.19;5002043;28;20163;-85
2022/03/16 07:41:11;;;;;;;72.18;26.83;;;;;;;5.40;48.95;95805.84;4984502;28;20401;-85
2022/03/16 07:43:37;;;;;;;77.25;27.83;;;;;;;5.95;48.46;95893.28;4996801;28;20061;-85
2022/03/16 07:46:03;;;;;;;67.45;25.95;;;;;;;5.61;48.76;95833.47;4996130;28;20048;-86
2022/03/16 07:48:29;;;;;;;58.30;23.63;;;;;;;5.47;48.30;95793.41;4986618;28;20154;-84
2022/03/16 07:50:55;;;;;;;61.63;23.15;;;;;;;6.18;47.97;95884.59;4999061;28;20104;-87
2022/03/16 07:53:20;;;;;;;66.90;23.88;;;;;;;5.04;48.17;95747.09;4969886;28;20029;-85
2022/03/16 07:55:47;;;;;;;56.08;24.33;;;;;;;5.40;48.25;95780.34;4984064;28;20037;-82
2022/03/16 07:58:13;;;;;;;67.03;25.42;;;;;;;5.88;47.63;95821.50;4979995;28;20042;-83
2022/03/16 08:00:39;;;;;;;75.57;24.52;;;;;;;6.07;47.56;95838.81;5004293;28;20516;-84
2022/03/16 08:03:05;;;;;;;75.95;26.35;;;;;;;5.06;47.38;95670.66;4985745;28;20128;-83
2022/03/16 08:05:31;;;;;;;60.30;24.05;;;;;;;2.52;47.43;95238.44;5002773;28;20033;-85
2022/03/16 08:07:56;;;;;;;69.90;26.25;;;;;;;4.26;47.53;95499.53;4987248;28;20033;-84
2022/03/16 08:10:22;;;;;;;61.88;26.48;;;;;;;6.24;47.45;95798.63;4981113;28;20042;-84
2022/03/16 08:12:48;;;;;;;80.50;27.20;;;;;;;6.50;47.73;95850.81;5003785;28;20061;-84
2022/03/16 08:15:14;;;;;;;73.32;27.50;;;;;;;5.54;47.47;95691.50;4983633;28;20041;-82
2022/03/16 08:17:39;;;;;;;75.30;27.45;;;;;;;6.27;46.60;95777.88;4999834;28;21272;-83
2022/03/16 08:20:05;;;;;;;74.40;27.35;;;;;;;6.18;46.50;95752.91;5001911;28;20495;-84
2022/03/16 08:22:33;;;;;;;87.75;25.90;;;;;;;6.49;46.08;95799.94;4984876;28;20435;-85
2022/03/16 08:25:01;;;;;;;84.00;25.70;;;;;;;6.61;45.84;95789.38;5001545;28;20044;-84
2022/03/16 08:27:27;;;;;;;68.93;27.83;;;;;;;7.23;45.93;95868.63;4994358;28;20438;-84
2022/03/16 08:29:54;;;;;;;68.30;24.70;;;;;;;6.95;45.73;95804.28;4984591;28;20033;-84
2022/03/16 08:32:20;;;;;;;70.85;25.73;;;;;;;7.36;45.95;95863.88;4995506;28;20033;-82
2022/03/16 08:34:46;;;;;;;58.72;24.88;;;;;;;7.45;45.22;95859.00;4994079;28;20416;-84
2022/03/16 08:37:12;;;;;;;61.88;21.63;;;;;;;7.21;44.09;95858.31;4998670;28;20456;-83
2022/03/16 08:39:39;;;;;;;46.47;19.30;;;;;;;7.02;43.14;95790.16;4992426;28;20567;-84
2022/03/16 08:42:18;;;;;;;45.97;18.27;;;;;;;6.79;42.01;95778.66;5000860;28;20390;-84
2022/03/16 08:44:45;;;;;;;47.00;19.00;;;;;;;6.77;42.21;95751.75;4959779;28;20181;-85
2022/03/16 08:47:16;;;;;;;49.55;19.50;;;;;;;7.05;41.93;95821.31;4975714;28;20449;-84
2022/03/16 08:49:42;;;;;;;67.13;21.08;;;;;;;6.33;42.62;95692.63;4973175;28;20255;-83
2022/03/16 08:58:10;;;;;;;92.18;28.33;;;;;;;7.63;42.81;95845.59;4997619;28;20058;-83
2022/03/16 09:00:37;;;;;;;102.05;33.42;;;;;;;5.79;43.16;95525.44;4981331;28;20346;-83
2022/03/16 09:06:38;;;;;;;79.65;29.75;;;;;;;5.82;42.24;95496.81;4984529;28;20053;-83
2022/03/16 09:09:04;;;;;;;92.55;28.50;;;;;;;7.48;42.20;95783.81;4983671;28;20046;-83
2022/03/16 09:11:29;;;;;;;79.93;25.30;;;;;;;6.83;41.96;95660.34;4978022;28;20033;-83
2022/03/16 09:13:58;;;;;;;92.32;29.42;;;;;;;7.27;41.90;95754.47;4982014;28;20084;-83
2022/03/16 09:16:23;;;;;;;98.68;31.05;;;;;;;7.40;41.99;95771.81;4981586;28;20148;-84
2022/03/16 09:18:50;;;;;;;87.32;34.10;;;;;;;7.76;42.80;95833.94;4987507;28;20040;-85
2022/03/16 09:21:16;;;;;;;98.65;35.55;;;;;;;7.50;42.67;95766.72;4978159;28;20792;-82
2022/03/16 09:23:42;;;;;;;99.82;36.08;;;;;;;7.79;42.61;95837.91;4999032;28;20120;-83
2022/03/16 09:26:08;;;;;;;113.97;36.03;;;;;;;7.22;43.26;95757.03;5001109;28;20033;-82
2022/03/16 09:28:33;;;;;;;94.13;34.28;;;;;;;6.98;42.73;95729.16;4981399;28;20127;-83
2022/03/16 09:30:59;;;;;;;107.00;35.13;;;;;;;7.53;42.70;95797.13;4997249;28;20038;-82
2022/03/16 09:33:25;;;;;;;86.22;32.28;;;;;;;6.85;43.16;95732.91;4978335;28;20049;-82
2022/03/16 09:35:53;;;;;;;79.95;31.58;;;;;;;6.47;42.49;95641.28;5002469;28;20464;-83
2022/03/16 09:38:22;;;;;;;83.22;32.33;;;;;;;7.63;42.21;95790.16;4979833;28;20038;-83
2022/03/16 09:40:53;;;;;;;91.60;35.10;;;;;;;7.13;42.41;95726.00;4984497;28;20037;-83
2022/03/16 09:43:23;;;;;;;86.32;34.15;;;;;;;7.73;42.89;95819.38;4984677;28;20255;-83
2022/03/16 09:46:10;;;;;;;98.43;32.53;;;;;;;7.93;42.41;95847.16;5000646;28;20556;-83
2022/03/16 09:48:38;;;;;;;98.22;36.42;;;;;;;7.82;42.15;95800.47;4985388;28;20059;-82
2022/03/16 09:51:05;;;;;;;76.15;32.97;;;;;;;7.40;42.29;95719.03;5005242;28;20045;-83
2022/03/16 09:53:31;;;;;;;95.93;33.63;;;;;;;7.97;41.92;95824.50;4981834;28;20353;-83
2022/03/16 09:55:57;;;;;;;99.85;34.83;;;;;;;6.49;42.77;95607.59;5004311;28;20038;-82
2022/03/16 09:58:23;;;;;;;86.10;32.00;;;;;;;8.12;42.65;95824.72;4980929;28;20056;-83
2022/03/16 10:00:56;;;;;;;92.07;35.00;;;;;;;7.26;42.20;95691.38;5002633;28;20050;-84
2022/03/16 10:03:23;;;;;;;101.38;32.22;;;;;;;6.03;41.87;95511.16;4979984;28;20080;-83
2022/03/16 10:05:50;;;;;;;78.10;30.10;;;;;;;5.21;41.66;95365.19;5001453;28;20536;-83
2022/03/16 10:08:33;;;;;;;80.40;30.15;;;;;;;7.35;41.61;95740.09;4990904;28;20066;-82
2022/03/16 10:14:07;;;;;;;75.40;32.33;;;;;;;7.58;42.83;95768.97;5007064;28;20040;-86
2022/03/16 10:17:43;;;;;;;98.95;33.45;;;;;;;7.27;42.96;95703.53;4989108;28;20096;-86
2022/03/16 10:19:24;;;;;;;77.57;33.03;;;;;;;8.07;42.80;95822.00;5005159;28;20052;-85
2022/03/16 10:21:58;;;;;;;95.32;30.60;;;;;;;7.82;42.04;95787.28;5004541;28;20038;-86
2022/03/16 10:24:29;;;;;;;82.07;32.45;;;;;;;8.05;41.74;95810.88;4994271;28;20041;-85
2022/03/16 10:26:58;;;;;;;86.60;31.33;;;;;;;7.22;41.21;95659.41;5005017;28;20058;-85
2022/03/16 10:29:26;;;;;;;79.22;31.58;;;;;;;8.19;41.56;95809.50;5009133;28;20042;-85
2022/03/16 10:32:03;;;;;;;97.13;34.33;;;;;;;7.52;42.88;95735.63;4987781;28;20017;-85
2022/03/16 10:34:29;;;;;;;77.57;31.92;;;;;;;7.70;42.17;95763.63;5009118;28;20037;-85
2022/03/16 10:36:54;;;;;;;85.97;31.35;;;;;;;6.38;41.56;95539.97;5006708;28;20048;-85
2022/03/16 10:39:35;;;;;;;77.53;33.92;;;;;;;5.91;42.68;95475.41;4985998;28;20038;-82
2022/03/16 10:47:49;;;;;;;91.30;31.52;;;;;;;8.09;41.79;95804.06;5005065;28;20682;-83
2022/03/16 10:50:17;;;;;;;88.72;33.47;;;;;;;7.67;41.85;95751.69;4996160;28;20080;-82
2022/03/16 10:52:44;;;;;;;82.30;30.35;;;;;;;7.52;41.43;95734.81;4987700;28;20128;-83
2022/03/16 10:55:12;;;;;;;70.95;29.48;;;;;;;6.95;40.90;95621.53;4989298;28;20038;-82
2022/03/16 10:57:38;;;;;;;83.40;31.15;;;;;;;7.72;41.27;95695.50;4986301;28;20144;-82
2022/03/16 11:00:04;;;;;;;87.90;33.60;;;;;;;8.33;40.94;95757.13;4974021;28;20106;-83
2022/03/16 11:02:34;;;;;;;83.28;31.95;;;;;;;8.17;41.02;95720.94;4978959;28;20030;-83
2022/03/16 11:05:03;;;;;;;82.07;32.22;;;;;;;8.92;40.89;95799.63;4985646;28;20061;-83
2022/03/16 11:07:31;;;;;;;81.72;33.22;;;;;;;8.13;40.96;95691.59;4980426;28;20105;-84
2022/03/16 11:09:58;;;;;;;83.15;32.88;;;;;;;8.05;40.33;95671.69;4978267;28;20030;-83
2022/03/16 11:15:11;;;;;;;82.47;31.27;;;;;;;8.69;40.77;95729.28;4979708;28;20149;-83
2022/03/16 11:17:37;;;;;;;69.70;29.38;;;;;;;8.58;41.02;95701.13;4982233;28;20337;-82
2022/03/16 11:20:04;;;;;;;98.05;30.77;;;;;;;8.84;41.11;95734.75;4980971;28;20038;-82
2022/03/16 11:25:52;;;;;;;83.00;28.90;;;;;;;8.27;40.15;95637.31;4973918;28;20080;-82
2022/03/16 11:28:33;;;;;;;77.22;27.90;;;;;;;8.43;40.78;95652.34;4972651;28;20866;-82
2022/03/16 11:31:00;;;;;;;62.80;27.48;;;;;;;8.66;40.54;95639.88;4974406;28;20051;-82
2022/03/16 11:33:26;;;;;;;82.72;29.77;;;;;;;7.64;40.71;95448.59;4968453;28;20045;-83
2022/03/16 11:35:52;;;;;;;75.32;28.75;;;;;;;9.58;40.81;95738.31;4988300;28;20033;-83
2022/03/16 11:38:18;;;;;;;81.80;29.65;;;;;;;9.38;40.41;95682.59;4971273;28;20038;-83
2022/03/16 11:40:49;;;;;;;99.57;33.80;;;;;;;9.12;40.35;95675.47;4962107;28;20133;-82
2022/03/16 11:43:18;;;;;;;96.60;35.58;;;;;;;9.18;40.85;95658.59;4974263;28;20275;-82
2022/03/16 11:45:57;;;;;;;93.53;38.05;;;;;;;9.60;41.36;95724.84;4967324;28;20065;-83
2022/03/16 11:48:31;;;;;;;93.05;38.22;;;;;;;9.73;40.96;95718.31;4968562;28;20044;-82